createdAt,value
2023-05-14T00:00:43.402Z,9.84
2023-05-14T00:01:43.365Z,9.87
2023-05-14T00:02:43.484Z,9.84
2023-05-14T00:03:43.482Z,9.86
2023-05-14T00:04:43.333Z,9.87
2023-05-14T00:05:43.323Z,9.83
2023-05-14T00:06:43.313Z,9.79
2023-05-14T00:07:43.301Z,9.75
2023-05-14T00:08:43.310Z,9.68
2023-05-14T00:09:43.287Z,9.66
2023-05-14T00:10:43.272Z,9.66
2023-05-14T00:11:43.253Z,9.65
2023-05-14T00:12:43.268Z,9.71
2023-05-14T00:13:43.241Z,9.75
2023-05-14T00:14:43.247Z,9.79
2023-05-14T00:15:43.289Z,9.89
2023-05-14T00:16:43.213Z,9.96
2023-05-14T00:17:43.207Z,10.07
2023-05-14T00:18:43.249Z,10.14
2023-05-14T00:19:43.179Z,10.23
2023-05-14T00:20:43.167Z,10.30
2023-05-14T00:21:43.147Z,10.36
2023-05-14T00:22:43.142Z,10.45
2023-05-14T00:23:43.138Z,10.48
2023-05-14T00:24:43.266Z,10.56
2023-05-14T00:25:43.105Z,10.61
2023-05-14T00:26:43.100Z,10.68
2023-05-14T00:27:43.093Z,10.73
2023-05-14T00:28:43.079Z,10.76
2023-05-14T00:29:43.049Z,10.78
2023-05-14T00:30:43.067Z,10.79
2023-05-14T00:31:43.039Z,10.82
2023-05-14T00:32:43.087Z,10.85
2023-05-14T00:33:43.013Z,10.89
2023-05-14T00:34:43.010Z,10.94
2023-05-14T00:35:42.985Z,10.99
2023-05-14T00:36:42.982Z,11.03
2023-05-14T00:37:43.075Z,11.02
2023-05-14T00:38:42.971Z,10.97
2023-05-14T00:39:42.985Z,10.86
2023-05-14T00:40:42.947Z,10.76
2023-05-14T00:41:42.945Z,10.78
2023-05-14T00:42:42.920Z,10.78
2023-05-14T00:43:42.911Z,10.73
2023-05-14T00:44:42.911Z,10.71
2023-05-14T00:45:42.891Z,10.68
2023-05-14T00:46:42.979Z,10.59
2023-05-14T00:47:42.869Z,10.45
2023-05-14T00:48:42.857Z,10.34
2023-05-14T00:49:42.852Z,10.27
2023-05-14T00:50:42.829Z,10.26
2023-05-14T00:51:42.810Z,10.29
2023-05-14T00:52:42.800Z,10.32
2023-05-14T00:53:42.794Z,10.34
2023-05-14T00:54:42.779Z,10.36
2023-05-14T00:55:42.808Z,10.41
2023-05-14T00:56:42.766Z,10.42
2023-05-14T00:57:42.762Z,10.42
2023-05-14T00:58:42.741Z,10.45
2023-05-14T00:59:42.809Z,10.47
2023-05-14T01:00:42.733Z,10.44
2023-05-14T01:01:42.707Z,10.42
2023-05-14T01:02:42.719Z,10.42
2023-05-14T01:03:42.761Z,10.42
2023-05-14T01:04:42.674Z,10.42
2023-05-14T01:05:42.651Z,10.40
2023-05-14T01:06:42.657Z,10.38
2023-05-14T01:07:42.637Z,10.33
2023-05-14T01:08:42.636Z,10.32
2023-05-14T01:09:42.622Z,10.29
2023-05-14T01:10:42.601Z,10.25
2023-05-14T01:11:42.604Z,10.18
2023-05-14T01:12:42.610Z,10.15
2023-05-14T01:13:42.568Z,10.14
2023-05-14T01:14:42.559Z,10.14
2023-05-14T01:15:42.557Z,10.11
2023-05-14T01:16:42.584Z,10.05
2023-05-14T01:17:42.599Z,10.02
2023-05-14T01:18:42.591Z,10.04
2023-05-14T01:19:42.531Z,10.07
2023-05-14T01:20:42.515Z,10.11
2023-05-14T01:21:42.484Z,10.17
2023-05-14T01:22:42.469Z,10.17
2023-05-14T01:23:42.454Z,10.20
2023-05-14T01:24:42.445Z,10.23
2023-05-14T01:25:42.451Z,10.23
2023-05-14T01:26:42.438Z,10.22
2023-05-14T01:27:42.422Z,10.15
2023-05-14T01:28:42.394Z,10.01
2023-05-14T01:29:42.390Z,9.91
2023-05-14T01:30:42.380Z,9.89
2023-05-14T01:31:42.392Z,9.86
2023-05-14T01:32:42.432Z,9.81
2023-05-14T01:33:42.339Z,9.81
2023-05-14T01:34:42.345Z,9.83
2023-05-14T01:35:42.314Z,9.87
2023-05-14T01:36:42.314Z,9.83
2023-05-14T01:37:42.297Z,9.78
2023-05-14T01:38:42.330Z,9.78
2023-05-14T01:39:42.286Z,9.74
2023-05-14T01:40:42.277Z,9.78
2023-05-14T01:41:42.272Z,9.87
2023-05-14T01:42:42.277Z,9.91
2023-05-14T01:43:42.230Z,9.86
2023-05-14T01:44:42.231Z,9.76
2023-05-14T01:45:42.254Z,9.72
2023-05-14T01:46:42.228Z,9.54
2023-05-14T01:47:42.211Z,9.58
2023-05-14T01:48:42.179Z,9.51
2023-05-14T01:49:42.161Z,9.48
2023-05-14T01:50:42.164Z,9.42
2023-05-14T01:51:42.152Z,9.33
2023-05-14T01:52:42.157Z,9.17
2023-05-14T01:53:42.123Z,9.13
2023-05-14T01:54:42.128Z,9.04
2023-05-14T01:55:42.103Z,8.96
2023-05-14T01:56:42.118Z,8.91
2023-05-14T01:57:42.087Z,8.84
2023-05-14T01:58:42.070Z,8.89
2023-05-14T01:59:42.042Z,8.92
2023-05-14T02:00:42.037Z,8.99
2023-05-14T02:01:42.063Z,9.11
2023-05-14T02:02:42.050Z,9.31
2023-05-14T02:03:42.075Z,9.51
2023-05-14T02:04:41.998Z,9.74
2023-05-14T02:05:41.984Z,9.94
2023-05-14T02:06:41.985Z,10.15
2023-05-14T02:07:41.978Z,10.36
2023-05-14T02:08:41.979Z,10.55
2023-05-14T02:09:41.960Z,10.68
2023-05-14T02:10:41.936Z,10.74
2023-05-14T02:11:41.923Z,10.84
2023-05-14T02:12:41.933Z,10.92
2023-05-14T02:13:41.901Z,10.94
2023-05-14T02:14:41.899Z,10.97
2023-05-14T02:15:41.933Z,11.03
2023-05-14T02:16:41.872Z,11.06
2023-05-14T02:17:41.890Z,11.07
2023-05-14T02:18:41.856Z,11.09
2023-05-14T02:19:41.833Z,11.11
2023-05-14T02:20:41.836Z,11.11
2023-05-14T02:21:41.856Z,11.14
2023-05-14T02:22:41.804Z,11.15
2023-05-14T02:23:42.270Z,11.15
2023-05-14T02:24:41.787Z,11.17
2023-05-14T02:25:41.785Z,11.19
2023-05-14T02:26:41.754Z,11.19
2023-05-14T02:27:41.761Z,11.21
2023-05-14T02:28:41.729Z,11.24
2023-05-14T02:29:41.747Z,11.24
2023-05-14T02:30:41.711Z,11.24
2023-05-14T02:31:41.714Z,11.24
2023-05-14T02:32:41.838Z,11.25
2023-05-14T02:33:41.757Z,11.28
2023-05-14T02:34:41.690Z,11.28
2023-05-14T02:35:41.664Z,11.29
2023-05-14T02:36:41.642Z,11.33
2023-05-14T02:37:41.645Z,11.33
2023-05-14T02:38:41.633Z,11.33
2023-05-14T02:39:41.632Z,11.35
2023-05-14T02:40:41.609Z,11.35
2023-05-14T02:41:41.599Z,11.36
2023-05-14T02:42:41.588Z,11.36
2023-05-14T02:43:41.651Z,11.37
2023-05-14T02:44:41.571Z,11.36
2023-05-14T02:45:41.558Z,11.36
2023-05-14T02:46:41.588Z,11.36
2023-05-14T02:47:41.592Z,11.36
2023-05-14T02:48:41.516Z,11.35
2023-05-14T02:49:41.498Z,11.35
2023-05-14T02:50:41.497Z,11.35
2023-05-14T02:51:41.487Z,11.36
2023-05-14T02:52:41.493Z,11.36
2023-05-14T02:53:41.464Z,11.35
2023-05-14T02:54:41.446Z,11.36
2023-05-14T02:55:41.446Z,11.36
2023-05-14T02:56:41.431Z,11.39
2023-05-14T02:57:41.422Z,11.36
2023-05-14T02:58:41.416Z,11.36
2023-05-14T02:59:41.396Z,11.37
2023-05-14T03:00:41.408Z,11.37
2023-05-14T03:01:41.376Z,11.36
2023-05-14T03:02:41.474Z,11.33
2023-05-14T03:03:41.356Z,11.36
2023-05-14T03:04:41.341Z,11.36
2023-05-14T03:05:41.332Z,11.36
2023-05-14T03:06:41.272Z,11.35
2023-05-14T03:07:41.258Z,11.35
2023-05-14T03:08:41.329Z,11.33
2023-05-14T03:09:41.282Z,11.33
2023-05-14T03:10:41.268Z,11.35
2023-05-14T03:11:41.271Z,11.33
2023-05-14T03:12:41.259Z,11.36
2023-05-14T03:13:41.244Z,11.35
2023-05-14T03:14:41.193Z,11.35
2023-05-14T03:15:41.170Z,11.36
2023-05-14T03:16:41.262Z,11.37
2023-05-14T03:17:41.247Z,11.36
2023-05-14T03:18:41.206Z,11.36
2023-05-14T03:19:41.123Z,11.37
2023-05-14T03:20:41.121Z,11.40
2023-05-14T03:21:41.105Z,11.42
2023-05-14T03:22:41.077Z,11.39
2023-05-14T03:23:41.078Z,11.39
2023-05-14T03:24:41.089Z,11.37
2023-05-14T03:25:41.093Z,11.37
2023-05-14T03:26:41.040Z,11.37
2023-05-14T03:27:41.032Z,11.37
2023-05-14T03:28:41.017Z,11.37
2023-05-14T03:29:41.011Z,11.36
2023-05-14T03:30:41.001Z,11.36
2023-05-14T03:31:40.995Z,11.33
2023-05-14T03:32:41.062Z,11.33
2023-05-14T03:33:40.980Z,11.35
2023-05-14T03:34:40.948Z,11.35
2023-05-14T03:35:40.930Z,11.32
2023-05-14T03:36:40.933Z,11.33
2023-05-14T03:37:40.912Z,11.29
2023-05-14T03:38:40.916Z,11.29
2023-05-14T03:39:40.911Z,11.24
2023-05-14T03:40:40.888Z,11.15
2023-05-14T03:41:40.877Z,10.99
2023-05-14T03:42:40.861Z,10.91
2023-05-14T03:43:40.858Z,10.67
2023-05-14T03:44:40.835Z,10.61
2023-05-14T03:45:40.857Z,10.44
2023-05-14T03:46:40.810Z,10.40
2023-05-14T03:47:40.824Z,10.36
2023-05-14T03:48:40.849Z,10.34
2023-05-14T03:49:40.788Z,10.36
2023-05-14T03:50:40.786Z,10.38
2023-05-14T03:51:40.775Z,10.42
2023-05-14T03:52:40.758Z,10.45
2023-05-14T03:53:40.748Z,10.51
2023-05-14T03:54:40.723Z,10.42
2023-05-14T03:55:40.726Z,10.42
2023-05-14T03:56:40.708Z,10.42
2023-05-14T03:57:40.708Z,10.36
2023-05-14T03:58:40.685Z,10.34
2023-05-14T03:59:40.692Z,10.34
2023-05-14T04:00:40.656Z,10.32
2023-05-14T04:01:40.648Z,10.12
2023-05-14T04:02:40.755Z,10.02
2023-05-14T04:03:40.887Z,9.79
2023-05-14T04:04:40.645Z,9.66
2023-05-14T04:05:40.637Z,9.48
2023-05-14T04:06:40.602Z,9.33
2023-05-14T04:07:40.582Z,9.33
2023-05-14T04:08:40.587Z,9.29
2023-05-14T04:09:40.582Z,9.28
2023-05-14T04:10:40.547Z,9.26
2023-05-14T04:11:40.555Z,9.29
2023-05-14T04:12:40.544Z,9.32
2023-05-14T04:13:40.537Z,9.38
2023-05-14T04:14:40.521Z,9.43
2023-05-14T04:15:40.518Z,9.51
2023-05-14T04:16:40.601Z,9.57
2023-05-14T04:17:40.552Z,9.58
2023-05-14T04:18:40.482Z,9.57
2023-05-14T04:19:40.463Z,9.53
2023-05-14T04:20:40.466Z,9.48
2023-05-14T04:21:40.458Z,9.42
2023-05-14T04:22:40.433Z,9.35
2023-05-14T04:23:40.416Z,9.26
2023-05-14T04:24:40.400Z,9.18
2023-05-14T04:25:40.386Z,9.11
2023-05-14T04:26:40.416Z,9.08
2023-05-14T04:27:40.389Z,9.02
2023-05-14T04:28:40.355Z,9.10
2023-05-14T04:29:40.361Z,9.04
2023-05-14T04:30:40.332Z,9.08
2023-05-14T04:31:40.339Z,9.10
2023-05-14T04:32:40.377Z,9.14
2023-05-14T04:33:40.316Z,9.18
2023-05-14T04:34:40.279Z,9.21
2023-05-14T04:35:40.273Z,9.26
2023-05-14T04:36:40.301Z,9.33
2023-05-14T04:37:40.255Z,9.36
2023-05-14T04:38:40.241Z,9.38
2023-05-14T04:39:40.235Z,9.36
2023-05-14T04:40:40.216Z,9.39
2023-05-14T04:41:40.206Z,9.40
2023-05-14T04:42:40.194Z,9.48
2023-05-14T04:43:40.190Z,9.51
2023-05-14T04:44:40.181Z,9.53
2023-05-14T04:45:40.182Z,9.54
2023-05-14T04:46:40.149Z,9.54
2023-05-14T04:47:40.158Z,9.50
2023-05-14T04:48:40.149Z,9.53
2023-05-14T04:49:40.140Z,9.43
2023-05-14T04:50:40.126Z,9.48
2023-05-14T04:51:40.114Z,9.50
2023-05-14T04:52:40.081Z,9.48
2023-05-14T04:53:40.085Z,9.51
2023-05-14T04:54:40.111Z,9.53
2023-05-14T04:55:40.053Z,9.51
2023-05-14T04:56:40.049Z,9.51
2023-05-14T04:57:40.059Z,9.53
2023-05-14T04:58:40.044Z,9.56
2023-05-14T04:59:40.022Z,9.58
2023-05-14T05:00:40.017Z,9.65
2023-05-14T05:01:40.114Z,9.71
2023-05-14T05:02:40.041Z,9.75
2023-05-14T05:03:40.043Z,9.81
2023-05-14T05:04:39.969Z,9.87
2023-05-14T05:05:39.959Z,9.91
2023-05-14T05:06:39.935Z,9.96
2023-05-14T05:07:39.930Z,10.01
2023-05-14T05:08:39.933Z,10.04
2023-05-14T05:09:39.917Z,10.08
2023-05-14T05:10:39.911Z,10.12
2023-05-14T05:11:39.914Z,10.17
2023-05-14T05:12:39.899Z,10.26
2023-05-14T05:13:39.875Z,10.32
2023-05-14T05:14:39.864Z,10.38
2023-05-14T05:15:39.889Z,10.45
2023-05-14T05:16:39.833Z,10.52
2023-05-14T05:17:39.869Z,10.56
2023-05-14T05:18:39.911Z,10.64
2023-05-14T05:19:44.323Z,10.70
2023-05-14T05:20:39.790Z,10.76
2023-05-14T05:21:39.787Z,10.84
2023-05-14T05:22:39.773Z,10.88
2023-05-14T05:23:39.810Z,10.92
2023-05-14T05:24:39.745Z,10.94
2023-05-14T05:25:39.746Z,10.99
2023-05-14T05:26:39.742Z,11.04
2023-05-14T05:27:39.728Z,11.06
2023-05-14T05:28:39.752Z,11.17
2023-05-14T05:29:39.693Z,11.19
2023-05-14T05:30:39.682Z,11.27
2023-05-14T05:31:39.722Z,11.35
2023-05-14T05:32:39.712Z,11.39
2023-05-14T05:33:39.665Z,11.46
2023-05-14T05:34:39.652Z,11.55
2023-05-14T05:35:39.634Z,11.61
2023-05-14T05:36:39.615Z,11.65
2023-05-14T05:37:39.599Z,11.70
2023-05-14T05:38:39.590Z,11.76
2023-05-14T05:39:39.599Z,11.83
2023-05-14T05:40:39.572Z,11.86
2023-05-14T05:41:39.556Z,11.91
2023-05-14T05:42:39.540Z,11.94
2023-05-14T05:43:39.530Z,11.98
2023-05-14T05:44:39.519Z,12.04
2023-05-14T05:45:39.507Z,12.09
2023-05-14T05:46:39.630Z,12.10
2023-05-14T05:47:39.499Z,12.16
2023-05-14T05:48:39.470Z,12.20
2023-05-14T05:49:39.491Z,12.23
2023-05-14T05:50:39.457Z,12.27
2023-05-14T05:51:39.448Z,12.32
2023-05-14T05:52:39.454Z,12.37
2023-05-14T05:53:39.437Z,12.41
2023-05-14T05:54:39.425Z,12.46
2023-05-14T05:55:39.416Z,12.50
2023-05-14T05:56:39.391Z,12.56
2023-05-14T05:57:39.419Z,12.62
2023-05-14T05:58:39.362Z,12.71
2023-05-14T05:59:39.354Z,12.79
2023-05-14T06:00:39.335Z,12.89
2023-05-14T06:01:39.344Z,12.95
2023-05-14T06:02:39.458Z,13.05
2023-05-14T06:03:39.379Z,13.11
2023-05-14T06:04:39.310Z,13.22
2023-05-14T06:05:39.321Z,13.26
2023-05-14T06:06:39.284Z,13.33
2023-05-14T06:07:39.286Z,13.38
2023-05-14T06:08:39.281Z,13.44
2023-05-14T06:09:39.322Z,13.49
2023-05-14T06:10:39.239Z,13.54
2023-05-14T06:11:39.219Z,13.60
2023-05-14T06:12:39.213Z,13.64
2023-05-14T06:13:39.192Z,13.67
2023-05-14T06:14:39.197Z,13.71
2023-05-14T06:15:39.195Z,13.75
2023-05-14T06:16:39.204Z,13.81
2023-05-14T06:17:39.202Z,13.82
2023-05-14T06:18:39.154Z,13.87
2023-05-14T06:19:39.155Z,13.89
2023-05-14T06:20:39.131Z,13.95
2023-05-14T06:21:39.130Z,13.97
2023-05-14T06:22:39.105Z,14.00
2023-05-14T06:23:39.127Z,14.03
2023-05-14T06:24:39.068Z,14.10
2023-05-14T06:25:39.060Z,14.14
2023-05-14T06:26:39.060Z,14.17
2023-05-14T06:27:39.058Z,14.24
2023-05-14T06:28:39.049Z,14.28
2023-05-14T06:29:39.060Z,14.36
2023-05-14T06:30:39.005Z,14.39
2023-05-14T06:31:39.066Z,14.43
2023-05-14T06:32:39.044Z,14.50
2023-05-14T06:33:38.980Z,14.51
2023-05-14T06:34:38.996Z,14.54
2023-05-14T06:35:38.946Z,14.57
2023-05-14T06:36:38.946Z,14.57
2023-05-14T06:37:38.928Z,14.57
2023-05-14T06:38:38.930Z,14.60
2023-05-14T06:39:38.913Z,14.61
2023-05-14T06:40:38.892Z,14.65
2023-05-14T06:41:38.888Z,14.68
2023-05-14T06:42:38.879Z,14.65
2023-05-14T06:43:38.864Z,14.68
2023-05-14T06:44:38.869Z,14.69
2023-05-14T06:45:38.846Z,14.73
2023-05-14T06:46:38.847Z,14.77
2023-05-14T06:47:38.862Z,14.83
2023-05-14T06:48:38.885Z,14.88
2023-05-14T06:49:38.836Z,14.96
2023-05-14T06:50:38.794Z,14.99
2023-05-14T06:51:38.792Z,15.03
2023-05-14T06:52:38.772Z,15.07
2023-05-14T06:53:38.754Z,15.03
2023-05-14T06:54:38.742Z,14.99
2023-05-14T06:55:38.724Z,14.99
2023-05-14T06:56:38.735Z,14.99
2023-05-14T06:57:40.646Z,15.02
2023-05-14T06:58:38.698Z,15.02
2023-05-14T06:59:38.690Z,15.06
2023-05-14T07:00:38.686Z,15.09
2023-05-14T07:01:38.736Z,15.13
2023-05-14T07:02:38.702Z,15.17
2023-05-14T07:03:38.643Z,15.20
2023-05-14T07:04:38.720Z,15.21
2023-05-14T07:05:38.614Z,15.28
2023-05-14T07:06:38.614Z,15.31
2023-05-14T07:07:38.607Z,15.35
2023-05-14T07:08:38.589Z,15.38
2023-05-14T07:09:38.605Z,15.46
2023-05-14T07:10:38.564Z,15.46
2023-05-14T07:11:38.552Z,15.49
2023-05-14T07:12:38.541Z,15.51
2023-05-14T07:13:38.553Z,15.54
2023-05-14T07:14:38.536Z,15.56
2023-05-14T07:15:38.530Z,15.54
2023-05-14T07:16:38.674Z,15.62
2023-05-14T07:17:38.537Z,15.68
2023-05-14T07:18:38.596Z,15.69
2023-05-14T07:19:38.560Z,15.71
2023-05-14T07:20:38.639Z,15.72
2023-05-14T07:21:38.559Z,15.74
2023-05-14T07:22:38.443Z,15.78
2023-05-14T07:23:38.433Z,15.80
2023-05-14T07:24:38.506Z,15.80
2023-05-14T07:25:38.408Z,15.75
2023-05-14T07:26:38.399Z,15.75
2023-05-14T07:27:38.381Z,15.83
2023-05-14T07:28:38.375Z,15.87
2023-05-14T07:29:38.370Z,15.90
2023-05-14T07:30:38.343Z,15.89
2023-05-14T07:31:38.396Z,16.02
2023-05-14T07:32:38.345Z,16.08
2023-05-14T07:33:38.335Z,16.11
2023-05-14T07:34:38.305Z,16.15
2023-05-14T07:35:38.293Z,16.17
2023-05-14T07:36:38.300Z,16.11
2023-05-14T07:37:38.265Z,16.14
2023-05-14T07:38:38.268Z,16.15
2023-05-14T07:39:38.257Z,16.15
2023-05-14T07:40:38.233Z,16.20
2023-05-14T07:41:38.222Z,16.17
2023-05-14T07:42:38.233Z,16.20
2023-05-14T07:43:38.195Z,16.23
2023-05-14T07:44:38.216Z,16.28
2023-05-14T07:45:38.200Z,16.30
2023-05-14T07:46:38.171Z,16.30
2023-05-14T07:47:38.293Z,16.35
2023-05-14T07:48:38.226Z,16.38
2023-05-14T07:49:38.167Z,16.35
2023-05-14T07:50:38.130Z,16.42
2023-05-14T07:51:38.136Z,16.43
2023-05-14T07:52:38.125Z,16.39
2023-05-14T07:53:38.095Z,16.35
2023-05-14T07:54:38.086Z,16.38
2023-05-14T07:55:38.118Z,16.46
2023-05-14T07:56:38.125Z,16.56
2023-05-14T07:57:38.057Z,16.53
2023-05-14T07:58:38.078Z,16.60
2023-05-14T07:59:38.228Z,16.63
2023-05-14T08:00:38.018Z,16.58
2023-05-14T08:01:39.450Z,16.60
2023-05-14T08:02:38.061Z,16.61
2023-05-14T08:03:38.044Z,16.63
2023-05-14T08:04:38.031Z,16.64
2023-05-14T08:05:37.989Z,16.70
2023-05-14T08:06:37.990Z,16.75
2023-05-14T08:07:37.965Z,16.75
2023-05-14T08:08:37.930Z,16.79
2023-05-14T08:09:37.991Z,16.73
2023-05-14T08:10:37.970Z,16.63
2023-05-14T08:11:37.884Z,16.57
2023-05-14T08:12:37.928Z,16.56
2023-05-14T08:13:37.858Z,16.58
2023-05-14T08:14:37.868Z,16.57
2023-05-14T08:15:37.894Z,16.52
2023-05-14T08:16:37.866Z,16.41
2023-05-14T08:17:37.892Z,16.33
2023-05-14T08:18:37.889Z,16.33
2023-05-14T08:19:37.838Z,16.31
2023-05-14T08:20:37.826Z,16.38
2023-05-14T08:21:37.808Z,16.38
2023-05-14T08:22:37.774Z,16.43
2023-05-14T08:23:37.881Z,16.48
2023-05-14T08:24:37.744Z,16.57
2023-05-14T08:25:38.042Z,16.63
2023-05-14T08:26:37.884Z,16.66
2023-05-14T08:27:37.710Z,16.64
2023-05-14T08:28:37.698Z,16.66
2023-05-14T08:29:37.713Z,16.64
2023-05-14T08:30:37.810Z,16.67
2023-05-14T08:31:37.676Z,16.71
2023-05-14T08:32:37.826Z,16.71
2023-05-14T08:33:37.666Z,16.73
2023-05-14T08:34:37.650Z,16.75
2023-05-14T08:35:37.650Z,16.75
2023-05-14T08:36:37.617Z,16.75
2023-05-14T08:37:37.611Z,16.73
2023-05-14T08:38:40.731Z,16.68
2023-05-14T08:39:37.577Z,16.63
2023-05-14T08:40:37.576Z,16.67
2023-05-14T08:41:37.574Z,16.73
2023-05-14T08:42:37.541Z,16.75
2023-05-14T08:43:37.528Z,16.78
2023-05-14T08:44:37.561Z,16.78
2023-05-14T08:45:37.532Z,16.91
2023-05-14T08:46:37.542Z,16.98
2023-05-14T08:47:37.516Z,17.04
2023-05-14T08:48:37.563Z,17.08
2023-05-14T08:49:37.525Z,17.06
2023-05-14T08:50:37.503Z,17.04
2023-05-14T08:51:37.439Z,17.00
2023-05-14T08:52:37.453Z,17.01
2023-05-14T08:53:37.434Z,17.08
2023-05-14T08:54:37.406Z,17.22
2023-05-14T08:55:37.414Z,17.34
2023-05-14T08:56:37.403Z,17.41
2023-05-14T08:57:37.376Z,17.49
2023-05-14T08:58:37.401Z,17.54
2023-05-14T08:59:37.352Z,17.58
2023-05-14T09:00:37.333Z,17.62
2023-05-14T09:01:37.386Z,17.72
2023-05-14T09:02:37.404Z,17.79
2023-05-14T09:03:37.332Z,17.72
2023-05-14T09:04:37.313Z,17.81
2023-05-14T09:05:37.296Z,17.75
2023-05-14T09:06:37.297Z,17.72
2023-05-14T09:07:37.250Z,17.72
2023-05-14T09:08:37.282Z,17.77
2023-05-14T09:09:37.250Z,17.84
2023-05-14T09:10:37.230Z,17.81
2023-05-14T09:11:37.429Z,17.66
2023-05-14T09:12:37.233Z,17.58
2023-05-14T09:13:37.195Z,17.55
2023-05-14T09:14:37.189Z,17.54
2023-05-14T09:15:37.213Z,17.52
2023-05-14T09:16:37.262Z,17.54
2023-05-14T09:17:37.213Z,17.51
2023-05-14T09:18:37.209Z,17.40
2023-05-14T09:19:37.121Z,17.36
2023-05-14T09:20:37.177Z,17.31
2023-05-14T09:21:37.135Z,17.25
2023-05-14T09:22:37.109Z,17.19
2023-05-14T09:23:37.164Z,17.12
2023-05-14T09:24:37.077Z,17.08
2023-05-14T09:25:37.088Z,17.07
2023-05-14T09:26:37.091Z,17.03
2023-05-14T09:27:37.107Z,17.01
2023-05-14T09:28:37.077Z,17.03
2023-05-14T09:29:37.018Z,17.01
2023-05-14T09:30:37.038Z,17.00
2023-05-14T09:31:37.212Z,17.00
2023-05-14T09:32:37.038Z,17.00
2023-05-14T09:33:37.483Z,16.91
2023-05-14T09:34:36.964Z,16.85
2023-05-14T09:35:36.944Z,16.81
2023-05-14T09:36:36.931Z,16.79
2023-05-14T09:37:36.981Z,16.76
2023-05-14T09:38:36.920Z,16.81
2023-05-14T09:39:36.927Z,16.82
2023-05-14T09:40:36.890Z,16.83
2023-05-14T09:41:36.890Z,16.83
2023-05-14T09:42:36.890Z,16.83
2023-05-14T09:43:36.917Z,16.83
2023-05-14T09:44:36.851Z,16.82
2023-05-14T09:45:36.843Z,16.83
2023-05-14T09:46:36.829Z,16.88
2023-05-14T09:47:36.939Z,16.94
2023-05-14T09:48:36.906Z,16.96
2023-05-14T09:49:36.948Z,17.00
2023-05-14T09:50:36.791Z,17.03
2023-05-14T09:51:36.818Z,17.07
2023-05-14T09:52:36.770Z,17.14
2023-05-14T09:53:36.746Z,17.18
2023-05-14T09:54:36.733Z,17.23
2023-05-14T09:55:36.812Z,17.22
2023-05-14T09:56:36.734Z,17.21
2023-05-14T09:57:36.782Z,17.18
2023-05-14T09:58:36.884Z,17.16
2023-05-14T09:59:36.702Z,17.14
2023-05-14T10:00:36.676Z,17.15
2023-05-14T10:01:36.747Z,17.06
2023-05-14T10:02:36.810Z,17.01
2023-05-14T10:03:36.707Z,17.00
2023-05-14T10:04:36.711Z,17.03
2023-05-14T10:05:36.601Z,17.07
2023-05-14T10:06:36.595Z,17.12
2023-05-14T10:07:36.596Z,17.08
2023-05-14T10:08:36.573Z,17.06
2023-05-14T10:09:36.599Z,17.04
2023-05-14T10:10:36.556Z,17.03
2023-05-14T10:11:36.606Z,17.01
2023-05-14T10:12:36.567Z,17.01
2023-05-14T10:13:36.534Z,17.03
2023-05-14T10:14:36.509Z,17.04
2023-05-14T10:15:36.502Z,17.01
2023-05-14T10:16:36.506Z,17.03
2023-05-14T10:17:36.585Z,17.06
2023-05-14T10:18:36.497Z,17.11
2023-05-14T10:19:36.485Z,17.11
2023-05-14T10:20:36.459Z,17.08
2023-05-14T10:21:36.479Z,17.11
2023-05-14T10:22:36.413Z,17.11
2023-05-14T10:23:36.412Z,17.11
2023-05-14T10:24:36.410Z,17.12
2023-05-14T10:25:36.388Z,17.11
2023-05-14T10:26:36.374Z,17.15
2023-05-14T10:27:36.384Z,17.11
2023-05-14T10:28:36.438Z,17.08
2023-05-14T10:29:36.340Z,17.11
2023-05-14T10:30:36.322Z,17.08
2023-05-14T10:31:36.339Z,17.07
2023-05-14T10:32:36.337Z,17.08
2023-05-14T10:33:36.303Z,17.08
2023-05-14T10:34:36.297Z,17.11
2023-05-14T10:35:36.261Z,17.08
2023-05-14T10:36:36.356Z,17.11
2023-05-14T10:37:36.260Z,17.12
2023-05-14T10:38:36.266Z,17.11
2023-05-14T10:39:36.237Z,17.14
2023-05-14T10:40:36.211Z,17.18
2023-05-14T10:41:36.198Z,17.18
2023-05-14T10:42:36.210Z,17.15
2023-05-14T10:43:36.177Z,17.12
2023-05-14T10:44:36.176Z,17.14
2023-05-14T10:45:36.159Z,17.11
2023-05-14T10:46:36.186Z,17.14
2023-05-14T10:47:36.179Z,17.15
2023-05-14T10:48:36.115Z,17.14
2023-05-14T10:49:43.542Z,17.11
2023-05-14T10:50:36.103Z,17.14
2023-05-14T10:51:36.185Z,17.16
2023-05-14T10:52:36.093Z,17.18
2023-05-14T10:53:36.080Z,17.19
2023-05-14T10:54:36.090Z,17.22
2023-05-14T10:55:36.044Z,17.22
2023-05-14T10:56:36.035Z,17.23
2023-05-14T10:57:36.028Z,17.25
2023-05-14T10:58:35.997Z,17.25
2023-05-14T10:59:35.994Z,17.30
2023-05-14T11:00:35.977Z,17.30
2023-05-14T11:01:36.011Z,17.28
2023-05-14T11:02:35.961Z,17.30
2023-05-14T11:03:36.040Z,17.23
2023-05-14T11:04:35.947Z,17.26
2023-05-14T11:05:35.924Z,17.21
2023-05-14T11:06:35.913Z,17.14
2023-05-14T11:07:35.939Z,17.11
2023-05-14T11:08:35.912Z,17.06
2023-05-14T11:09:35.903Z,17.06
2023-05-14T11:10:35.884Z,17.06
2023-05-14T11:11:35.869Z,17.08
2023-05-14T11:12:35.854Z,17.11
2023-05-14T11:13:35.860Z,17.14
2023-05-14T11:14:35.864Z,17.18
2023-05-14T11:15:35.848Z,17.22
2023-05-14T11:16:35.854Z,17.21
2023-05-14T11:17:35.853Z,17.25
2023-05-14T11:18:35.793Z,17.28
2023-05-14T11:19:35.788Z,17.28
2023-05-14T11:20:35.773Z,17.26
2023-05-14T11:21:35.802Z,17.21
2023-05-14T11:22:35.773Z,17.15
2023-05-14T11:23:35.729Z,17.15
2023-05-14T11:24:35.722Z,17.15
2023-05-14T11:25:35.707Z,17.15
2023-05-14T11:26:35.735Z,17.16
2023-05-14T11:27:35.711Z,17.14
2023-05-14T11:28:35.703Z,17.12
2023-05-14T11:29:35.661Z,17.12
2023-05-14T11:30:35.653Z,17.14
2023-05-14T11:31:35.692Z,17.18
2023-05-14T11:32:35.708Z,17.18
2023-05-14T11:33:35.631Z,17.22
2023-05-14T11:34:35.619Z,17.18
2023-05-14T11:35:35.602Z,17.07
2023-05-14T11:36:35.584Z,17.03
2023-05-14T11:37:35.595Z,17.04
2023-05-14T11:38:35.560Z,17.11
2023-05-14T11:39:35.563Z,17.07
2023-05-14T11:40:35.542Z,17.04
2023-05-14T11:41:35.542Z,17.06
2023-05-14T11:42:35.517Z,17.06
2023-05-14T11:43:35.509Z,17.08
2023-05-14T11:44:35.511Z,17.12
2023-05-14T11:45:35.500Z,17.11
2023-05-14T11:46:35.658Z,17.11
2023-05-14T11:47:35.495Z,17.12
2023-05-14T11:48:35.448Z,17.16
2023-05-14T11:49:35.450Z,17.18
2023-05-14T11:50:35.434Z,17.21
2023-05-14T11:51:35.436Z,17.22
2023-05-14T11:52:35.416Z,17.23
2023-05-14T11:53:35.409Z,17.26
2023-05-14T11:54:35.387Z,17.30
2023-05-14T11:55:35.369Z,17.30
2023-05-14T11:56:35.372Z,17.31
2023-05-14T11:57:35.379Z,17.33
2023-05-14T11:58:35.348Z,17.34
2023-05-14T11:59:35.335Z,17.31
2023-05-14T12:00:35.353Z,17.36
2023-05-14T12:01:35.307Z,17.40
2023-05-14T12:02:35.374Z,17.41
2023-05-14T12:03:35.586Z,17.44
2023-05-14T12:04:35.293Z,17.49
2023-05-14T12:05:35.263Z,17.49
2023-05-14T12:06:35.242Z,17.51
2023-05-14T12:07:35.260Z,17.51
2023-05-14T12:08:35.220Z,17.58
2023-05-14T12:09:35.276Z,17.63
2023-05-14T12:10:35.209Z,17.66
2023-05-14T12:11:35.193Z,17.71
2023-05-14T12:12:35.179Z,17.75
2023-05-14T12:13:35.166Z,17.77
2023-05-14T12:14:35.209Z,17.81
2023-05-14T12:15:35.170Z,17.84
2023-05-14T12:16:37.607Z,17.86
2023-05-14T12:17:35.188Z,17.87
2023-05-14T12:18:35.169Z,17.90
2023-05-14T12:19:35.096Z,17.90
2023-05-14T12:20:35.111Z,17.87
2023-05-14T12:21:35.157Z,17.89
2023-05-14T12:22:36.989Z,17.89
2023-05-14T12:23:35.073Z,17.89
2023-05-14T12:24:35.047Z,17.87
2023-05-14T12:25:35.035Z,17.93
2023-05-14T12:26:35.030Z,17.93
2023-05-14T12:27:35.016Z,17.93
2023-05-14T12:28:38.073Z,17.97
2023-05-14T12:29:35.001Z,17.99
2023-05-14T12:30:35.044Z,17.97
2023-05-14T12:31:35.082Z,18.03
2023-05-14T12:32:35.048Z,18.05
2023-05-14T12:33:34.959Z,18.10
2023-05-14T12:34:37.240Z,18.12
2023-05-14T12:35:34.936Z,18.12
2023-05-14T12:36:34.900Z,18.17
2023-05-14T12:37:34.929Z,18.15
2023-05-14T12:38:34.884Z,18.14
2023-05-14T12:39:34.887Z,18.10
2023-05-14T12:40:34.882Z,18.12
2023-05-14T12:41:34.861Z,18.12
2023-05-14T12:42:34.864Z,18.11
2023-05-14T12:43:34.843Z,18.14
2023-05-14T12:44:34.825Z,18.18
2023-05-14T12:45:34.824Z,18.17
2023-05-14T12:46:34.839Z,18.12
2023-05-14T12:47:35.014Z,18.08
2023-05-14T12:48:34.790Z,18.05
2023-05-14T12:49:34.769Z,17.99
2023-05-14T12:50:34.770Z,17.95
2023-05-14T12:51:34.786Z,17.90
2023-05-14T12:52:39.300Z,17.84
2023-05-14T12:53:34.752Z,17.82
2023-05-14T12:54:34.740Z,17.81
2023-05-14T12:55:34.725Z,17.84
2023-05-14T12:56:34.697Z,17.84